Depesza METAR lotniska Warszawa-Okęcie

METAR = EPWA 040400Z 17009KT 9999 BKN043 01/M02 Q1013 NOSIG

STACJA......... EPWA - Warszawa-Okęcie (WAW)
POMIAR......... Wed Mar 4, 05:00 CET
TERAZ.......... Wed Mar 4, 05:15 CET
CZAS........... 15 min temu
WIATR.......... południowy (S) z prędkością 17 km/h
WIDZIALNOŚĆ.. powyżej 10 kilometrów
CHMURY......... zachmurzenie średnie (5/8-7/8)
TEMPERATURA.... 1°C
T.PUNKTU ROSY.. -2°C
WILGOTNOŚĆ... 81%
T.ODCZUWALNA... -3°C
CIŚNIENIE..... 1013 hPa
PROGNOZA....... bez nagłych zmian w ciągu 2h

Depesza METAR lotniska Kraków-Balice

METAR = EPKK 040400Z VRB01KT 8000 NSC M02/M03 Q1016

STACJA......... EPKK - Kraków-Balice (KRK)
POMIAR......... Wed Mar 4, 05:00 CET
TERAZ.......... Wed Mar 4, 05:15 CET
CZAS........... 15 min temu
WIATR.......... zmienny z prędkością 2 km/h
WIDZIALNOŚĆ.. 8000 metrów
CHMURY......... brak istotnych chmur
TEMPERATURA.... -2°C
T.PUNKTU ROSY.. -3°C
WILGOTNOŚĆ... 93%
CIŚNIENIE..... 1016 hPa

Depesza METAR lotniska Łódź-Lublinek

METAR = EPLL 040400Z 22011KT 9999 -RA BKN012 02/M00 Q1013

STACJA......... EPLL - Łódź-Lublinek (LCJ)
POMIAR......... Wed Mar 4, 05:00 CET
TERAZ.......... Wed Mar 4, 05:15 CET
CZAS........... 15 min temu
WIATR.......... południowo-zachodni (SW) z prędkością 20 km/h
WIDZIALNOŚĆ.. powyżej 10 kilometrów
WARUNKI........ słaby: deszcz 
CHMURY......... zachmurzenie średnie (5/8-7/8)
TEMPERATURA.... 2°C
T.PUNKTU ROSY.. 0°C
WILGOTNOŚĆ... 87%
T.ODCZUWALNA... -2°C
CIŚNIENIE..... 1013 hPa

Depesza METAR lotniska Wrocław-Strachowice

METAR = EPWR 040400Z 29013KT 9999 FEW021 SCT036 05/01 Q1015

STACJA......... EPWR - Wrocław-Strachowice (WRO)
POMIAR......... Wed Mar 4, 05:00 CET
TERAZ.......... Wed Mar 4, 05:15 CET
CZAS........... 15 min temu
WIATR.......... zachodni północno-zachodni (WNW) z prędkością 24 km/h
WIDZIALNOŚĆ.. powyżej 10 kilometrów
CHMURY......... zachmurzenie małe (3/8-4/8)
TEMPERATURA.... 5°C
T.PUNKTU ROSY.. 1°C
WILGOTNOŚĆ... 76%
T.ODCZUWALNA... 1°C
CIŚNIENIE..... 1015 hPa

Depesza METAR lotniska Katowice-Pyrzowice

METAR = EPKT 040400Z 21008KT 170V240 9999 FEW040CB SCT045 04/M04 Q1015

STACJA......... EPKT - Katowice-Pyrzowice (KTW)
POMIAR......... Wed Mar 4, 05:00 CET
TERAZ.......... Wed Mar 4, 05:15 CET
CZAS........... 15 min temu
WIATR.......... południowo południowo-zachodni  (SSW) z prędkością 15 km/h
WIDZIALNOŚĆ.. powyżej 10 kilometrów
CHMURY......... zachmurzenie małe (3/8-4/8)
TEMPERATURA.... 4°C
T.PUNKTU ROSY.. -4°C
WILGOTNOŚĆ... 56%
T.ODCZUWALNA... 1°C
CIŚNIENIE..... 1015 hPa

Depesza METAR lotniska Gdańsk

METAR = EPGD 040400Z 21004KT 170V240 7000 BKN007 01/00 Q1007

STACJA......... EPGD - Gdańsk im. Lecha Wałęsy (GDN)
POMIAR......... Wed Mar 4, 05:00 CET
TERAZ.......... Wed Mar 4, 05:15 CET
CZAS........... 15 min temu
WIATR.......... południowo południowo-zachodni  (SSW) z prędkością 7 km/h
WIDZIALNOŚĆ.. 7000 metrów
CHMURY......... zachmurzenie średnie (5/8-7/8)
TEMPERATURA.... 1°C
T.PUNKTU ROSY.. 0°C
WILGOTNOŚĆ... 93%
T.ODCZUWALNA... -1°C
CIŚNIENIE..... 1007 hPa

Depesza METAR lotniska Poznań-Ławica

METAR = EPPO 040400Z 26015KT 9999 BKN013 03/01 Q1012

STACJA......... EPPO - Poznań-Ławica (POZ)
POMIAR......... Wed Mar 4, 05:00 CET
TERAZ.......... Wed Mar 4, 05:15 CET
CZAS........... 15 min temu
WIATR.......... zachodni (W) z prędkością 28 km/h
WIDZIALNOŚĆ.. powyżej 10 kilometrów
CHMURY......... zachmurzenie średnie (5/8-7/8)
TEMPERATURA.... 3°C
T.PUNKTU ROSY.. 1°C
WILGOTNOŚĆ... 87%
T.ODCZUWALNA... -3°C
CIŚNIENIE..... 1012 hPa

Depesza METAR lotniska Rzeszów-Jasionka

METAR = EPRZ 040400Z 19008KT CAVOK 00/M04 Q1018

STACJA......... EPRZ - Rzeszów-Jasionka (RZE)
POMIAR......... Wed Mar 4, 05:00 CET
TERAZ.......... Wed Mar 4, 05:15 CET
CZAS........... 15 min temu
WIATR.......... południowy (S) z prędkością 15 km/h
WIDZIALNOŚĆ.. powyżej 10 kilometrów
CHMURY......... bezchmurne niebo
TEMPERATURA.... 0°C
T.PUNKTU ROSY.. -4°C
WILGOTNOŚĆ... 75%
T.ODCZUWALNA... -4°C
CIŚNIENIE..... 1018 hPa

Depesza METAR lotniska Szczecin-Goleniów

METAR = EPSC 040400Z 26011KT 9999 SCT017 BKN021 02/M01 Q1011

STACJA......... EPSC - Szczecin-Goleniów (SZZ)
POMIAR......... Wed Mar 4, 05:00 CET
TERAZ.......... Wed Mar 4, 05:15 CET
CZAS........... 15 min temu
WIATR.......... zachodni (W) z prędkością 20 km/h
WIDZIALNOŚĆ.. powyżej 10 kilometrów
CHMURY......... zachmurzenie średnie (5/8-7/8)
TEMPERATURA.... 2°C
T.PUNKTU ROSY.. -1°C
WILGOTNOŚĆ... 81%
T.ODCZUWALNA... -2°C
CIŚNIENIE..... 1011 hPa

Depesza METAR lotniska Lublin-Świdnik

METAR = EPLB 170930Z 08006KT 2000 -RA BR FEW006 OVC011 12/11 Q1009

STACJA......... EPLB - Lublin-Świdnik (LUZ)
POMIAR......... Fri Oct 17, 10:30 CEST
TERAZ.......... Wed Mar 4, 05:15 CET
CZAS........... 3307:45 godz temu
WIATR.......... wschodni (E) z prędkością 11 km/h
WIDZIALNOŚĆ.. 2000 metrów
WARUNKI........ słaby: deszcz  & zamglenie 
CHMURY......... zachmurzenie całkowite (8/8)
TEMPERATURA.... 12°C
T.PUNKTU ROSY.. 11°C
WILGOTNOŚĆ... 94%
CIŚNIENIE..... 1009 hPa

Sprawdź też: prognoza pogody dla miast w Polsce!